createdAt,value
2022-08-04T00:00:18.838Z,61.21
2022-08-04T00:01:18.894Z,61.30
2022-08-04T00:02:18.846Z,61.59
2022-08-04T00:03:18.863Z,61.46
2022-08-04T00:04:18.872Z,61.21
2022-08-04T00:05:18.867Z,61.21
2022-08-04T00:06:18.867Z,61.49
2022-08-04T00:07:18.936Z,61.56
2022-08-04T00:08:18.875Z,61.46
2022-08-04T00:09:18.977Z,61.88
2022-08-04T00:10:18.896Z,62.07
2022-08-04T00:11:18.895Z,62.43
2022-08-04T00:12:18.961Z,62.34
2022-08-04T00:13:18.897Z,62.34
2022-08-04T00:14:18.909Z,62.63
2022-08-04T00:15:18.929Z,62.04
2022-08-04T00:16:18.911Z,62.24
2022-08-04T00:17:18.988Z,62.43
2022-08-04T00:18:18.978Z,62.72
2022-08-04T00:19:18.931Z,62.72
2022-08-04T00:20:18.933Z,62.34
2022-08-04T00:21:18.959Z,61.95
2022-08-04T00:22:18.950Z,62.24
2022-08-04T00:23:19.035Z,62.24
2022-08-04T00:24:18.996Z,62.63
2022-08-04T00:25:18.962Z,62.34
2022-08-04T00:26:18.979Z,62.82
2022-08-04T00:27:19.232Z,62.63
2022-08-04T00:28:18.976Z,62.72
2022-08-04T00:29:18.994Z,62.82
2022-08-04T00:30:19.037Z,63.01
2022-08-04T00:31:19.000Z,63.01
2022-08-04T00:32:33.821Z,62.34
2022-08-04T00:33:19.005Z,62.43
2022-08-04T00:34:19.005Z,62.43
2022-08-04T00:35:19.011Z,62.72
2022-08-04T00:36:19.012Z,63.01
2022-08-04T00:37:19.139Z,63.49
2022-08-04T00:38:19.025Z,63.59
2022-08-04T00:39:19.648Z,63.27
2022-08-04T00:40:19.032Z,62.82
2022-08-04T00:41:19.047Z,62.98
2022-08-04T00:42:19.145Z,63.11
2022-08-04T00:43:19.051Z,63.11
2022-08-04T00:44:23.750Z,62.92
2022-08-04T00:45:19.056Z,62.72
2022-08-04T00:46:19.067Z,62.63
2022-08-04T00:47:19.225Z,63.11
2022-08-04T00:48:19.076Z,63.08
2022-08-04T00:49:19.072Z,63.08
2022-08-04T00:50:19.098Z,63.18
2022-08-04T00:51:19.100Z,63.08
2022-08-04T00:52:32.786Z,63.31
2022-08-04T00:53:19.088Z,63.08
2022-08-04T00:54:19.138Z,62.88
2022-08-04T00:55:19.187Z,62.88
2022-08-04T00:56:19.105Z,63.21
2022-08-04T00:57:29.947Z,63.49
2022-08-04T00:58:19.122Z,63.46
2022-08-04T00:59:19.125Z,63.27
2022-08-04T01:00:19.299Z,62.98
2022-08-04T01:01:19.210Z,62.88
2022-08-04T01:02:19.131Z,63.27
2022-08-04T01:03:19.146Z,63.31
2022-08-04T01:04:19.704Z,63.46
2022-08-04T01:05:19.148Z,63.49
2022-08-04T01:06:19.177Z,63.85
2022-08-04T01:07:19.265Z,64.04
2022-08-04T01:08:19.158Z,63.66
2022-08-04T01:09:21.466Z,63.08
2022-08-04T01:10:19.165Z,63.46
2022-08-04T01:11:19.173Z,63.46
2022-08-04T01:12:19.474Z,63.56
2022-08-04T01:13:19.186Z,64.14
2022-08-04T01:14:19.252Z,63.66
2022-08-04T01:15:19.363Z,64.14
2022-08-04T01:16:19.237Z,64.24
2022-08-04T01:17:19.249Z,64.14
2022-08-04T01:18:19.464Z,63.66
2022-08-04T01:19:19.208Z,63.56
2022-08-04T01:20:19.209Z,63.56
2022-08-04T01:21:19.457Z,63.08
2022-08-04T01:22:19.232Z,64.14
2022-08-04T01:23:19.252Z,64.04
2022-08-04T01:24:19.371Z,63.95
2022-08-04T01:25:19.251Z,64.24
2022-08-04T01:26:42.651Z,63.37
2022-08-04T01:27:19.631Z,63.85
2022-08-04T01:28:19.242Z,64.14
2022-08-04T01:29:19.281Z,63.85
2022-08-04T01:30:19.262Z,63.95
2022-08-04T01:31:19.283Z,64.34
2022-08-04T01:32:19.263Z,63.66
2022-08-04T01:33:19.306Z,64.34
2022-08-04T01:34:19.300Z,63.95
2022-08-04T01:35:22.350Z,64.24
2022-08-04T01:36:19.345Z,64.43
2022-08-04T01:37:19.436Z,64.72
2022-08-04T01:38:21.456Z,64.34
2022-08-04T01:39:19.372Z,64.34
2022-08-04T01:40:19.350Z,64.34
2022-08-04T01:41:19.310Z,64.53
2022-08-04T01:42:32.103Z,64.53
2022-08-04T01:43:19.334Z,64.43
2022-08-04T01:44:19.357Z,64.14
2022-08-04T01:45:19.333Z,64.34
2022-08-04T01:46:19.336Z,64.92
2022-08-04T01:47:19.497Z,64.69
2022-08-04T01:48:19.347Z,64.62
2022-08-04T01:49:19.342Z,64.31
2022-08-04T01:50:19.376Z,64.62
2022-08-04T01:51:19.382Z,64.21
2022-08-04T01:52:19.353Z,64.11
2022-08-04T01:53:19.358Z,64.21
2022-08-04T01:54:19.374Z,64.98
2022-08-04T01:55:19.368Z,64.24
2022-08-04T01:56:19.370Z,64.40
2022-08-04T01:57:37.978Z,64.59
2022-08-04T01:58:19.379Z,64.98
2022-08-04T01:59:19.383Z,64.79
2022-08-04T02:00:19.388Z,64.79
2022-08-04T02:01:19.506Z,64.89
2022-08-04T02:02:19.545Z,64.59
2022-08-04T02:03:19.407Z,64.79
2022-08-04T02:04:23.324Z,65.08
2022-08-04T02:05:19.408Z,64.79
2022-08-04T02:06:19.414Z,65.08
2022-08-04T02:07:19.723Z,64.89
2022-08-04T02:08:19.418Z,64.69
2022-08-04T02:09:19.422Z,64.79
2022-08-04T02:10:19.430Z,64.89
2022-08-04T02:11:19.430Z,64.89
2022-08-04T02:12:19.437Z,64.31
2022-08-04T02:13:19.440Z,64.69
2022-08-04T02:14:19.452Z,64.21
2022-08-04T02:15:19.453Z,64.59
2022-08-04T02:16:19.453Z,64.59
2022-08-04T02:17:19.733Z,64.59
2022-08-04T02:18:19.467Z,64.59
2022-08-04T02:19:19.479Z,64.50
2022-08-04T02:20:19.480Z,64.50
2022-08-04T02:21:19.475Z,64.69
2022-08-04T02:22:19.483Z,64.11
2022-08-04T02:23:19.490Z,64.31
2022-08-04T02:24:19.483Z,64.79
2022-08-04T02:25:19.490Z,64.69
2022-08-04T02:26:22.637Z,64.21
2022-08-04T02:27:19.807Z,64.89
2022-08-04T02:28:19.511Z,64.40
2022-08-04T02:29:19.510Z,65.08
2022-08-04T02:30:19.514Z,65.17
2022-08-04T02:31:19.517Z,64.37
2022-08-04T02:32:19.527Z,64.50
2022-08-04T02:33:19.537Z,64.69
2022-08-04T02:34:19.526Z,64.89
2022-08-04T02:35:19.537Z,65.17
2022-08-04T02:36:19.551Z,64.76
2022-08-04T02:37:19.858Z,64.69
2022-08-04T02:38:25.772Z,64.56
2022-08-04T02:39:19.569Z,65.05
2022-08-04T02:40:19.550Z,64.95
2022-08-04T02:41:19.571Z,65.34
2022-08-04T02:42:19.558Z,65.72
2022-08-04T02:43:19.601Z,65.53
2022-08-04T02:44:19.570Z,65.53
2022-08-04T02:45:19.573Z,65.24
2022-08-04T02:46:19.580Z,65.34
2022-08-04T02:47:19.965Z,65.24
2022-08-04T02:48:31.039Z,65.34
2022-08-04T02:49:19.581Z,65.43
2022-08-04T02:50:28.155Z,65.14
2022-08-04T02:51:19.607Z,65.14
2022-08-04T02:52:19.604Z,65.05
2022-08-04T02:53:19.602Z,64.85
2022-08-04T02:54:28.294Z,65.34
2022-08-04T02:55:19.632Z,65.34
2022-08-04T02:56:19.616Z,65.34
2022-08-04T02:57:19.934Z,65.05
2022-08-04T02:58:19.630Z,65.82
2022-08-04T02:59:19.625Z,65.43
2022-08-04T03:00:19.626Z,65.53
2022-08-04T03:01:19.726Z,65.72
2022-08-04T03:02:19.636Z,65.53
2022-08-04T03:03:19.632Z,65.82
2022-08-04T03:04:25.090Z,65.53
2022-08-04T03:05:19.652Z,65.53
2022-08-04T03:06:19.665Z,65.72
2022-08-04T03:07:19.897Z,65.20
2022-08-04T03:08:19.659Z,65.53
2022-08-04T03:09:19.668Z,65.82
2022-08-04T03:10:19.665Z,65.82
2022-08-04T03:11:19.664Z,66.17
2022-08-04T03:12:19.674Z,66.11
2022-08-04T03:13:19.673Z,66.27
2022-08-04T03:14:19.679Z,66.36
2022-08-04T03:15:19.686Z,66.17
2022-08-04T03:16:19.694Z,66.56
2022-08-04T03:17:19.986Z,66.98
2022-08-04T03:18:19.693Z,66.56
2022-08-04T03:19:19.703Z,66.75
2022-08-04T03:20:19.704Z,66.66
2022-08-04T03:21:19.723Z,66.85
2022-08-04T03:22:19.727Z,66.36
2022-08-04T03:23:19.710Z,66.36
2022-08-04T03:24:20.301Z,66.36
2022-08-04T03:25:19.721Z,66.36
2022-08-04T03:26:19.739Z,66.85
2022-08-04T03:27:20.026Z,66.66
2022-08-04T03:28:19.767Z,66.94
2022-08-04T03:29:35.982Z,66.46
2022-08-04T03:30:19.752Z,66.66
2022-08-04T03:31:19.750Z,66.66
2022-08-04T03:32:19.740Z,66.56
2022-08-04T03:33:19.744Z,66.66
2022-08-04T03:34:19.780Z,66.66
2022-08-04T03:35:22.973Z,66.36
2022-08-04T03:36:19.767Z,65.69
2022-08-04T03:37:20.095Z,66.17
2022-08-04T03:38:19.775Z,66.46
2022-08-04T03:39:19.817Z,66.56
2022-08-04T03:40:19.789Z,66.56
2022-08-04T03:41:51.608Z,66.36
2022-08-04T03:42:19.782Z,66.46
2022-08-04T03:43:57.374Z,66.17
2022-08-04T03:44:19.791Z,65.98
2022-08-04T03:45:23.445Z,66.27
2022-08-04T03:46:19.801Z,66.56
2022-08-04T03:47:20.142Z,66.46
2022-08-04T03:48:19.802Z,66.75
2022-08-04T03:49:19.800Z,66.66
2022-08-04T03:50:19.811Z,67.04
2022-08-04T03:51:35.693Z,67.04
2022-08-04T03:52:19.822Z,67.04
2022-08-04T03:53:19.824Z,67.62
2022-08-04T03:54:19.823Z,67.43
2022-08-04T03:55:19.830Z,67.52
2022-08-04T03:56:19.830Z,67.33
2022-08-04T03:57:20.109Z,67.52
2022-08-04T03:58:19.837Z,67.33
2022-08-04T03:59:19.841Z,67.14
2022-08-04T04:00:19.842Z,67.43
2022-08-04T04:01:19.850Z,67.14
2022-08-04T04:02:19.891Z,67.49
2022-08-04T04:03:28.332Z,67.88
2022-08-04T04:04:19.873Z,67.52
2022-08-04T04:05:19.857Z,67.24
2022-08-04T04:06:19.879Z,67.43
2022-08-04T04:07:27.877Z,66.75
2022-08-04T04:08:19.876Z,67.14
2022-08-04T04:09:20.827Z,66.75
2022-08-04T04:10:23.359Z,67.04
2022-08-04T04:11:19.915Z,66.94
2022-08-04T04:12:19.892Z,66.85
2022-08-04T04:13:19.891Z,66.56
2022-08-04T04:14:19.911Z,66.46
2022-08-04T04:15:19.902Z,66.75
2022-08-04T04:16:19.904Z,66.94
2022-08-04T04:17:20.129Z,66.66
2022-08-04T04:18:19.916Z,66.56
2022-08-04T04:19:19.916Z,67.14
2022-08-04T04:20:19.935Z,66.85
2022-08-04T04:21:19.937Z,67.14
2022-08-04T04:22:19.923Z,67.04
2022-08-04T04:23:19.935Z,67.62
2022-08-04T04:24:19.938Z,67.04
2022-08-04T04:25:19.941Z,66.75
2022-08-04T04:26:19.940Z,67.14
2022-08-04T04:27:20.242Z,67.04
2022-08-04T04:28:44.736Z,67.24
2022-08-04T04:29:19.943Z,67.46
2022-08-04T04:30:19.974Z,66.85
2022-08-04T04:31:19.957Z,67.17
2022-08-04T04:32:19.955Z,67.17
2022-08-04T04:33:19.957Z,66.88
2022-08-04T04:34:20.005Z,67.08
2022-08-04T04:35:19.971Z,67.04
2022-08-04T04:36:19.982Z,66.78
2022-08-04T04:37:20.224Z,66.66
2022-08-04T04:38:19.980Z,66.46
2022-08-04T04:39:20.037Z,66.30
2022-08-04T04:40:19.985Z,66.11
2022-08-04T04:41:19.999Z,66.11
2022-08-04T04:42:19.995Z,66.20
2022-08-04T04:43:19.993Z,66.11
2022-08-04T04:44:20.016Z,65.72
2022-08-04T04:45:20.011Z,65.53
2022-08-04T04:46:20.016Z,65.82
2022-08-04T04:48:01.698Z,66.11
2022-08-04T04:48:20.016Z,65.82
2022-08-04T04:49:20.020Z,65.82
2022-08-04T04:50:20.021Z,66.11
2022-08-04T04:51:20.025Z,65.53
2022-08-04T04:52:20.029Z,65.24
2022-08-04T04:53:20.037Z,65.43
2022-08-04T04:54:20.044Z,65.63
2022-08-04T04:55:20.072Z,65.63
2022-08-04T04:56:20.052Z,65.63
2022-08-04T04:57:20.287Z,65.43
2022-08-04T04:58:20.061Z,65.72
2022-08-04T04:59:20.077Z,65.34
2022-08-04T05:00:20.058Z,65.24
2022-08-04T05:01:20.064Z,64.85
2022-08-04T05:02:20.069Z,65.34
2022-08-04T05:03:20.075Z,65.14
2022-08-04T05:04:20.072Z,65.24
2022-08-04T05:05:20.075Z,65.63
2022-08-04T05:06:20.083Z,65.72
2022-08-04T05:07:20.325Z,65.63
2022-08-04T05:08:43.240Z,65.43
2022-08-04T05:09:20.117Z,64.95
2022-08-04T05:10:20.109Z,65.24
2022-08-04T05:11:20.111Z,65.72
2022-08-04T05:13:20.421Z,65.72
2022-08-04T05:14:38.406Z,65.63
2022-08-04T05:14:38.860Z,65.82
2022-08-04T05:15:25.184Z,65.92
2022-08-04T05:16:20.132Z,65.14
2022-08-04T05:17:20.305Z,65.34
2022-08-04T05:18:20.136Z,65.43
2022-08-04T05:19:20.138Z,65.82
2022-08-04T05:20:20.138Z,65.82
2022-08-04T05:21:20.143Z,65.05
2022-08-04T05:22:20.148Z,65.24
2022-08-04T05:23:20.160Z,64.79
2022-08-04T05:24:20.153Z,65.08
2022-08-04T05:25:20.164Z,65.34
2022-08-04T05:26:20.177Z,64.69
2022-08-04T05:27:20.404Z,64.69
2022-08-04T05:28:20.183Z,64.01
2022-08-04T05:29:20.193Z,64.21
2022-08-04T05:30:20.176Z,64.59
2022-08-04T05:31:20.180Z,64.31
2022-08-04T05:32:20.184Z,64.50
2022-08-04T05:33:20.203Z,64.50
2022-08-04T05:34:20.192Z,64.50
2022-08-04T05:35:49.834Z,64.89
2022-08-04T05:36:35.397Z,64.79
2022-08-04T05:37:20.453Z,64.50
2022-08-04T05:38:20.213Z,64.50
2022-08-04T05:39:20.301Z,64.31
2022-08-04T05:40:20.223Z,64.50
2022-08-04T05:41:20.254Z,64.31
2022-08-04T05:42:20.229Z,64.31
2022-08-04T05:43:20.234Z,64.53
2022-08-04T05:44:20.276Z,64.72
2022-08-04T05:45:20.361Z,64.14
2022-08-04T05:46:20.272Z,63.27
2022-08-04T05:47:20.500Z,63.31
2022-08-04T05:48:20.251Z,63.11
2022-08-04T05:49:22.220Z,62.43
2022-08-04T05:50:20.262Z,62.75
2022-08-04T05:51:20.265Z,61.79
2022-08-04T05:52:20.298Z,61.59
2022-08-04T05:53:20.291Z,60.94
2022-08-04T05:54:20.295Z,60.17
2022-08-04T05:55:56.696Z,59.78
2022-08-04T05:56:20.309Z,59.33
2022-08-04T05:57:20.585Z,59.13
2022-08-04T05:58:20.333Z,58.45
2022-08-04T05:59:20.336Z,57.87
2022-08-04T06:00:40.215Z,57.80
2022-08-04T06:01:20.419Z,57.42
2022-08-04T06:02:20.403Z,57.51
2022-08-04T06:03:20.375Z,57.15
2022-08-04T06:04:20.394Z,56.86
2022-08-04T06:05:20.396Z,56.96
2022-08-04T06:06:20.412Z,57.25
2022-08-04T06:07:20.595Z,56.11
2022-08-04T06:08:20.438Z,55.92
2022-08-04T06:09:20.471Z,55.53
2022-08-04T06:10:25.412Z,55.17
2022-08-04T06:11:20.477Z,55.17
2022-08-04T06:12:20.501Z,55.46
2022-08-04T06:13:48.217Z,55.55
2022-08-04T06:14:20.529Z,55.10
2022-08-04T06:15:20.538Z,53.83
2022-08-04T06:16:28.580Z,53.45
2022-08-04T06:18:32.701Z,52.98
2022-08-04T06:18:58.545Z,52.28
2022-08-04T06:20:03.983Z,52.79
2022-08-04T06:20:23.387Z,52.69
2022-08-04T06:21:20.623Z,52.79
2022-08-04T06:22:20.646Z,51.75
2022-08-04T06:23:20.652Z,52.04
2022-08-04T06:24:20.681Z,51.75
2022-08-04T06:25:20.754Z,50.19
2022-08-04T06:26:20.722Z,50.41
2022-08-04T06:27:20.938Z,50.90
2022-08-04T06:28:20.736Z,50.41
2022-08-04T06:29:20.749Z,49.83
2022-08-04T06:30:20.785Z,49.66
2022-08-04T06:32:29.669Z,49.95
2022-08-04T06:32:30.411Z,48.97
2022-08-04T06:33:20.824Z,48.80
2022-08-04T06:34:20.836Z,48.51
2022-08-04T06:35:20.849Z,47.53
2022-08-04T06:36:20.875Z,47.73
2022-08-04T06:37:24.166Z,47.92
2022-08-04T06:38:21.181Z,47.56
2022-08-04T06:39:20.954Z,46.78
2022-08-04T06:40:30.983Z,47.56
2022-08-04T06:41:20.948Z,46.80
2022-08-04T06:42:22.546Z,47.09
2022-08-04T06:43:20.978Z,45.25
2022-08-04T06:47:21.637Z,44.48
2022-08-04T06:48:21.073Z,44.19
2022-08-04T06:49:21.107Z,44.48
2022-08-04T06:51:27.048Z,44.70
2022-08-04T06:51:32.342Z,44.12
2022-08-04T06:52:21.157Z,44.51
2022-08-04T06:53:21.159Z,45.02
2022-08-04T06:54:21.191Z,44.53
2022-08-04T06:55:21.207Z,44.82
2022-08-04T06:56:21.211Z,44.53
2022-08-04T06:57:21.434Z,44.43
2022-08-04T06:58:21.300Z,44.53
2022-08-04T06:59:21.306Z,44.24
2022-08-04T07:00:21.320Z,43.75
2022-08-04T07:01:21.348Z,43.95
2022-08-04T07:02:21.388Z,44.34
2022-08-04T07:03:21.404Z,43.36
2022-08-04T07:04:21.382Z,42.87
2022-08-04T07:05:21.399Z,42.38
2022-08-04T07:06:21.418Z,41.52
2022-08-04T07:07:33.791Z,41.23
2022-08-04T07:08:21.429Z,41.33
2022-08-04T07:09:21.458Z,42.11
2022-08-04T07:10:22.283Z,41.42
2022-08-04T07:11:21.485Z,41.25
2022-08-04T07:12:21.504Z,41.03
2022-08-04T07:13:21.515Z,41.35
2022-08-04T07:14:21.564Z,40.95
2022-08-04T07:15:21.577Z,41.83
2022-08-04T07:16:21.579Z,41.83
2022-08-04T07:17:21.760Z,40.86
2022-08-04T07:18:21.614Z,41.54
2022-08-04T07:21:21.972Z,40.29
2022-08-04T07:23:21.706Z,41.27
2022-08-04T07:24:23.244Z,41.46
2022-08-04T07:25:22.746Z,41.36
2022-08-04T07:26:22.888Z,41.29
2022-08-04T07:27:47.183Z,41.29
2022-08-04T07:28:25.161Z,41.09
2022-08-04T07:29:23.166Z,40.21
2022-08-04T07:31:33.669Z,40.50
2022-08-04T07:34:22.594Z,39.53
2022-08-04T07:36:03.985Z,40.41
2022-08-04T07:36:22.244Z,40.01
2022-08-04T07:37:23.111Z,40.41
2022-08-04T07:39:28.743Z,39.82
2022-08-04T07:40:22.401Z,39.53
2022-08-04T07:42:44.166Z,40.43
2022-08-04T07:43:23.310Z,40.03
2022-08-04T07:46:22.857Z,38.28
2022-08-04T07:47:25.474Z,39.06
2022-08-04T07:49:55.737Z,40.72
2022-08-04T07:53:23.479Z,38.96
2022-08-04T07:55:23.226Z,39.07
2022-08-04T07:56:22.829Z,39.47
2022-08-04T07:59:23.080Z,39.07
2022-08-04T08:04:23.011Z,39.56
2022-08-04T08:06:32.869Z,39.76
2022-08-04T08:10:23.205Z,39.37
2022-08-04T08:15:22.771Z,38.60
2022-08-04T08:16:22.760Z,38.39
2022-08-04T08:17:23.050Z,38.59
2022-08-04T08:18:23.739Z,37.81
2022-08-04T08:19:23.296Z,39.09
2022-08-04T08:20:31.261Z,38.49
2022-08-04T08:21:22.850Z,38.60
2022-08-04T08:22:24.096Z,38.29
2022-08-04T08:23:24.253Z,39.39
2022-08-04T08:24:24.268Z,39.59
2022-08-04T08:25:23.970Z,39.88
2022-08-04T08:26:23.851Z,39.98
2022-08-04T08:27:23.453Z,39.49
2022-08-04T08:28:24.083Z,39.59
2022-08-04T08:29:22.998Z,39.39
2022-08-04T08:30:23.108Z,39.09
2022-08-04T08:31:55.593Z,39.88
2022-08-04T08:32:23.893Z,39.59
2022-08-04T08:33:23.051Z,39.39
2022-08-04T08:34:28.117Z,38.80
2022-08-04T08:35:23.160Z,37.92
2022-08-04T08:36:23.107Z,38.12
2022-08-04T08:37:23.918Z,38.12
2022-08-04T08:38:24.229Z,38.12
2022-08-04T08:39:24.880Z,37.92
2022-08-04T08:40:40.392Z,38.51
2022-08-04T08:41:23.627Z,38.51
2022-08-04T08:42:23.390Z,39.00
2022-08-04T08:44:06.348Z,39.07
2022-08-04T08:44:36.445Z,38.60
2022-08-04T08:45:23.736Z,39.19
2022-08-04T08:47:24.607Z,39.49
2022-08-04T08:48:23.743Z,37.82
2022-08-04T08:50:02.539Z,38.21
2022-08-04T08:50:24.432Z,37.13
2022-08-04T08:51:23.920Z,36.94
2022-08-04T08:52:55.306Z,37.13
2022-08-04T08:53:23.998Z,37.33
2022-08-04T08:54:24.505Z,38.51
2022-08-04T08:55:24.478Z,38.60
2022-08-04T08:56:31.037Z,38.70
2022-08-04T08:57:24.427Z,37.13
2022-08-04T08:58:23.942Z,36.65
2022-08-04T08:59:24.427Z,36.63
2022-08-04T09:00:31.693Z,36.82
2022-08-04T09:01:24.965Z,36.82
2022-08-04T09:02:24.538Z,37.31
2022-08-04T09:03:23.997Z,38.10
2022-08-04T09:04:25.884Z,37.90
2022-08-04T09:05:24.208Z,38.68
2022-08-04T09:06:24.100Z,38.20
2022-08-04T09:07:23.703Z,38.00
2022-08-04T09:08:23.499Z,37.90
2022-08-04T09:09:23.521Z,37.71
2022-08-04T09:10:23.540Z,37.81
2022-08-04T09:11:23.520Z,37.90
2022-08-04T09:12:25.906Z,37.81
2022-08-04T09:13:23.545Z,39.54
2022-08-04T09:14:23.565Z,38.28
2022-08-04T09:15:23.576Z,39.37
2022-08-04T09:16:23.639Z,39.15
2022-08-04T09:17:23.886Z,39.47
2022-08-04T09:18:23.609Z,38.59
2022-08-04T09:19:37.978Z,38.49
2022-08-04T09:20:23.650Z,38.49
2022-08-04T09:21:23.642Z,38.68
2022-08-04T09:22:23.649Z,38.10
2022-08-04T09:23:23.680Z,37.81
2022-08-04T09:24:35.800Z,36.43
2022-08-04T09:25:23.686Z,36.53
2022-08-04T09:26:23.689Z,36.33
2022-08-04T09:27:24.008Z,36.33
2022-08-04T09:28:50.761Z,35.94
2022-08-04T09:29:25.380Z,36.04
2022-08-04T09:30:26.344Z,35.75
2022-08-04T09:31:24.124Z,35.93
2022-08-04T09:32:24.517Z,35.75
2022-08-04T09:33:44.805Z,36.04
2022-08-04T09:34:24.550Z,36.80
2022-08-04T09:35:24.818Z,36.02
2022-08-04T09:36:25.922Z,35.53
2022-08-04T09:37:24.917Z,36.41
2022-08-04T09:38:25.343Z,37.19
2022-08-04T09:39:25.627Z,36.51
2022-08-04T09:40:31.508Z,36.80
2022-08-04T09:41:49.188Z,36.32
2022-08-04T09:42:25.952Z,36.80
2022-08-04T09:43:23.953Z,36.90
2022-08-04T09:44:50.936Z,35.93
2022-08-04T09:45:26.220Z,35.93
2022-08-04T09:46:24.172Z,35.85
2022-08-04T09:47:24.444Z,35.34
2022-08-04T09:48:24.243Z,35.34
2022-08-04T09:49:23.971Z,35.14
2022-08-04T09:50:23.942Z,35.24
2022-08-04T09:51:25.184Z,34.55
2022-08-04T09:52:24.422Z,34.36
2022-08-04T09:53:24.532Z,34.55
2022-08-04T09:55:24.384Z,34.77
2022-08-04T09:56:24.664Z,34.75
2022-08-04T09:57:25.145Z,34.84
2022-08-04T09:58:24.028Z,34.45
2022-08-04T09:59:24.035Z,34.75
2022-08-04T10:00:41.020Z,35.24
2022-08-04T10:01:24.061Z,35.14
2022-08-04T10:02:24.239Z,34.86
2022-08-04T10:03:24.155Z,34.45
2022-08-04T10:04:24.079Z,34.75
2022-08-04T10:05:24.111Z,35.14
2022-08-04T10:06:24.122Z,35.04
2022-08-04T10:07:24.390Z,34.84
2022-08-04T10:08:24.121Z,34.84
2022-08-04T10:09:24.142Z,35.14
2022-08-04T10:10:24.166Z,35.04
2022-08-04T10:11:24.164Z,35.14
2022-08-04T10:12:24.161Z,35.14
2022-08-04T10:13:24.184Z,35.44
2022-08-04T10:14:24.194Z,34.94
2022-08-04T10:15:24.489Z,35.04
2022-08-04T10:16:24.208Z,35.34
2022-08-04T10:17:24.391Z,35.24
2022-08-04T10:18:24.229Z,35.04
2022-08-04T10:19:24.234Z,35.34
2022-08-04T10:20:36.445Z,34.84
2022-08-04T10:21:24.255Z,35.14
2022-08-04T10:22:30.044Z,35.44
2022-08-04T10:23:24.289Z,35.24
2022-08-04T10:24:24.288Z,35.34
2022-08-04T10:25:44.451Z,35.34
2022-08-04T10:26:24.316Z,35.16
2022-08-04T10:27:24.328Z,35.34
2022-08-04T10:28:24.336Z,35.14
2022-08-04T10:29:24.365Z,35.14
2022-08-04T10:30:24.348Z,35.04
2022-08-04T10:31:24.360Z,35.25
2022-08-04T10:32:24.370Z,35.16
2022-08-04T10:33:24.376Z,35.55
2022-08-04T10:34:24.444Z,35.44
2022-08-04T10:35:24.403Z,35.35
2022-08-04T10:36:24.411Z,35.44
2022-08-04T10:37:59.349Z,35.25
2022-08-04T10:38:27.078Z,34.94
2022-08-04T10:39:43.354Z,35.14
2022-08-04T10:40:24.445Z,35.63
2022-08-04T10:41:24.458Z,35.14
2022-08-04T10:42:24.474Z,35.34
2022-08-04T10:43:24.478Z,35.34
2022-08-04T10:44:24.510Z,35.24
2022-08-04T10:45:24.515Z,35.63
2022-08-04T10:46:24.512Z,36.02
2022-08-04T10:47:24.517Z,36.12
2022-08-04T10:48:34.317Z,36.22
2022-08-04T10:49:24.550Z,35.83
2022-08-04T10:50:24.552Z,36.12
2022-08-04T10:51:24.558Z,35.73
2022-08-04T10:52:24.572Z,36.22
2022-08-04T10:53:24.583Z,36.02
2022-08-04T10:54:24.591Z,35.73
2022-08-04T10:56:06.246Z,35.34
2022-08-04T10:56:24.610Z,35.34
2022-08-04T10:57:24.759Z,35.63
2022-08-04T10:58:24.630Z,35.24
2022-08-04T10:59:24.638Z,35.44
2022-08-04T11:00:24.662Z,35.34
2022-08-04T11:02:00.862Z,34.94
2022-08-04T11:02:24.681Z,35.34
2022-08-04T11:03:24.749Z,35.73
2022-08-04T11:04:27.823Z,35.24
2022-08-04T11:05:24.706Z,35.14
2022-08-04T11:06:24.737Z,35.24
2022-08-04T11:07:24.875Z,34.94
2022-08-04T11:08:24.729Z,34.84
2022-08-04T11:09:24.744Z,34.84
2022-08-04T11:10:25.539Z,34.65
2022-08-04T11:11:24.755Z,35.14
2022-08-04T11:12:24.765Z,35.14
2022-08-04T11:13:29.789Z,34.65
2022-08-04T11:14:24.788Z,34.55
2022-08-04T11:15:24.809Z,34.75
2022-08-04T11:16:24.806Z,34.94
2022-08-04T11:17:24.821Z,35.14
2022-08-04T11:18:24.878Z,34.55
2022-08-04T11:19:45.132Z,34.55
2022-08-04T11:20:40.166Z,34.45
2022-08-04T11:21:24.874Z,34.57
2022-08-04T11:22:24.867Z,34.57
2022-08-04T11:23:24.881Z,34.18
2022-08-04T11:24:26.254Z,34.08
2022-08-04T11:25:24.908Z,34.28
2022-08-04T11:26:24.932Z,34.18
2022-08-04T11:27:24.929Z,34.06
2022-08-04T11:28:24.935Z,34.18
2022-08-04T11:29:24.948Z,33.79
2022-08-04T11:30:24.987Z,33.98
2022-08-04T11:31:24.977Z,33.29
2022-08-04T11:32:24.988Z,32.81
2022-08-04T11:33:25.014Z,32.81
2022-08-04T11:34:25.025Z,32.90
2022-08-04T11:35:25.017Z,33.00
2022-08-04T11:36:25.042Z,33.39
2022-08-04T11:37:25.244Z,33.09
2022-08-04T11:38:29.152Z,33.28
2022-08-04T11:39:25.091Z,33.18
2022-08-04T11:40:25.046Z,33.38
2022-08-04T11:41:25.062Z,33.39
2022-08-04T11:42:25.064Z,33.38
2022-08-04T11:44:01.144Z,33.28
2022-08-04T11:44:25.119Z,32.20
2022-08-04T11:45:25.119Z,31.93
2022-08-04T11:46:25.133Z,31.73
2022-08-04T11:47:25.121Z,31.93
2022-08-04T11:48:25.121Z,31.73
2022-08-04T11:49:25.138Z,31.83
2022-08-04T11:50:25.154Z,31.71
2022-08-04T11:51:25.180Z,31.54
2022-08-04T11:52:25.166Z,30.75
2022-08-04T11:53:25.202Z,30.36
2022-08-04T11:54:25.197Z,30.07
2022-08-04T11:55:25.223Z,30.46
2022-08-04T11:56:35.813Z,30.94
2022-08-04T11:57:25.746Z,30.75
2022-08-04T11:58:25.238Z,30.75
2022-08-04T11:59:25.241Z,29.97
2022-08-04T12:00:25.251Z,29.97
2022-08-04T12:01:25.260Z,30.07
2022-08-04T12:02:25.344Z,30.55
2022-08-04T12:03:25.298Z,30.65
2022-08-04T12:04:25.292Z,30.75
2022-08-04T12:05:35.579Z,31.06
2022-08-04T12:06:25.327Z,31.26
2022-08-04T12:07:35.421Z,31.04
2022-08-04T12:08:25.348Z,30.87
2022-08-04T12:09:25.346Z,31.63
2022-08-04T12:10:41.780Z,31.93
2022-08-04T12:11:25.374Z,32.14
2022-08-04T12:12:25.379Z,32.04
2022-08-04T12:13:25.383Z,32.03
2022-08-04T12:14:25.399Z,31.93
2022-08-04T12:15:25.402Z,31.65
2022-08-04T12:16:30.482Z,31.84
2022-08-04T12:17:25.421Z,31.94
2022-08-04T12:18:25.425Z,32.14
2022-08-04T12:19:25.499Z,32.14
2022-08-04T12:20:32.062Z,32.23
2022-08-04T12:21:25.454Z,32.34
2022-08-04T12:22:31.287Z,32.43
2022-08-04T12:23:25.500Z,32.14
2022-08-04T12:24:25.496Z,32.04
2022-08-04T12:25:25.512Z,32.34
2022-08-04T12:26:25.513Z,32.04
2022-08-04T12:27:30.347Z,32.73
2022-08-04T12:28:25.536Z,32.73
2022-08-04T12:29:25.550Z,32.82
2022-08-04T12:30:58.598Z,32.23
2022-08-04T12:31:25.575Z,32.23
2022-08-04T12:32:25.575Z,32.04
2022-08-04T12:34:02.694Z,31.84
2022-08-04T12:34:29.995Z,31.94
2022-08-04T12:35:25.632Z,31.74
2022-08-04T12:36:25.609Z,31.74
2022-08-04T12:37:25.620Z,31.45
2022-08-04T12:38:25.637Z,31.35
2022-08-04T12:39:25.704Z,31.45
2022-08-04T12:40:30.306Z,30.77
2022-08-04T12:41:25.666Z,30.96
2022-08-04T12:42:25.684Z,31.16
2022-08-04T12:43:25.688Z,31.26
2022-08-04T12:44:37.040Z,30.77
2022-08-04T12:45:25.708Z,31.16
2022-08-04T12:46:25.753Z,31.06
2022-08-04T12:47:29.131Z,31.16
2022-08-04T12:48:25.744Z,30.77
2022-08-04T12:49:25.791Z,30.87
2022-08-04T12:50:25.753Z,30.57
2022-08-04T12:52:06.178Z,30.96
2022-08-04T12:52:45.049Z,30.67
2022-08-04T12:53:31.776Z,30.96
2022-08-04T12:54:28.836Z,31.16
2022-08-04T12:55:25.850Z,30.67
2022-08-04T12:56:25.828Z,30.67
2022-08-04T12:57:25.836Z,30.96
2022-08-04T12:58:42.232Z,30.37
2022-08-04T12:59:25.862Z,30.47
2022-08-04T13:00:29.747Z,30.37
2022-08-04T13:02:07.221Z,30.87
2022-08-04T13:02:25.940Z,30.67
2022-08-04T13:03:25.936Z,30.67
2022-08-04T13:04:29.327Z,30.67
2022-08-04T13:05:25.904Z,30.67
2022-08-04T13:06:25.925Z,30.87
2022-08-04T13:07:25.939Z,30.47
2022-08-04T13:08:25.942Z,30.67
2022-08-04T13:09:25.949Z,29.98
2022-08-04T13:10:30.190Z,29.60
2022-08-04T13:11:25.980Z,29.50
2022-08-04T13:12:32.629Z,29.70
2022-08-04T13:13:26.003Z,29.50
2022-08-04T13:14:27.913Z,29.02
2022-08-04T13:15:26.024Z,28.82
2022-08-04T13:16:26.029Z,28.92
2022-08-04T13:17:26.494Z,29.11
2022-08-04T13:18:29.574Z,29.21
2022-08-04T13:19:26.065Z,29.31
2022-08-04T13:20:26.067Z,29.31
2022-08-04T13:21:50.449Z,29.70
2022-08-04T13:22:26.608Z,29.02
2022-08-04T13:23:26.110Z,29.02
2022-08-04T13:24:32.624Z,28.92
2022-08-04T13:26:42.583Z,28.53
2022-08-04T13:26:42.686Z,28.72